Akron, CO

11:16 PM MDT on August 27, 2015 (GMT -0600)
Eastern Akron, CO | | Change Station
CLOSE
Current Station
Personal Weather Station
Location: Akron, CO
Elevation: 4656 ft
Nearby Weather Stations

Elev 4656 ft 40.16 °N, 103.20 °W | Updated 18 seconds ago

Partly Cloudy
Partly Cloudy
65.6 °F
Feels Like 65.6 °F
N
3.0
Wind Variable Wind from NW
Gusts 5.0 mph

Today
High -- | Low -- °F
--% Chance of Precip.
Yesterday
High -- | Low -- °F
Precip. -- in
6:15 AM 7:32 PM
Waxing Gibbous, 96% visible
Pressure 29.94 in
Visibility 10.0 miles
Clouds Clear
Dew Point 58 °F
Humidity 77%
Rainfall in
Snow Depth Not available.
UV 0 out of 12
Pollen 9.80 out of 12
Air Quality Not available.
Flu Activity Not available.
METAR KAKO 280453Z AUTO 29007KT 10SM CLR 17/15 A3012 RMK AO2 SLP139 T01720150 TSNO
Pressure 29.94 in
Visibility 10.0 miles
Clouds Clear
Dew Point 58 °F
Humidity 77%
Rainfall in
Snow Depth Not available.
UV 0 out of 12
Pollen 9.80 out of 12
Air Quality Not available.
Flu Activity Not available.
METAR KAKO 280453Z AUTO 29007KT 10SM CLR 17/15 A3012 RMK AO2 SLP139 T01720150 TSNO

10-Day Weather Forecast

×

Almanac

Astronomy

Aug. 27, 2015 Rise Set
Actual Time
Civil Twilight
Nautical Twilight
Astronomical Twilight
Moon
Length of Visible Light
Length of Day
Tomorrow will be .
, % of the Moon is Illuminated

Today's Extremes

State Highs State Lows

Community

WunderPhotos

Upload Photos

1,850,340 photos uploaded!

WunderBlogs® & News

Nearby

Air Quality

  Air Quality AQ Index Pollutant
Not available.

Snow Depth

Station Depth Elevation

Earthquake Activity

City Distance Mag. Time & Date
Minimum magnitude displayed is 2.5.

Coastal Water Temperatures

Place Temperature

Stations

Nearby Weather Stations

Station Location Temp. Windchill Dew Point Humidity Wind Precip. Elev Updated Type